Time;durP1;ratioP1;P1;durP2;ratioP2;P2;SDS_P1;SDS_P2;PMS_P1;PMS_P2;Temp;Humidity;BMP_temperature;BMP_pressure;BME280_temperature;BME280_humidity;BME280_pressure;Samples;Min_cycle;Max_cycle;Signal;HPM_P1;HPM_P2
2023/05/06 00:00:55;;;;;;;1.03;0.50;;;13.90;99.90;;;;;;5072207;28;20544;-53
2023/05/06 00:03:22;;;;;;;1.20;0.67;;;13.50;99.90;;;;;;5072214;28;20444;-54
2023/05/06 00:05:49;;;;;;;1.10;0.73;;;13.50;99.90;;;;;;5071884;28;20524;-52
2023/05/06 00:08:16;;;;;;;1.10;0.80;;;13.80;99.90;;;;;;5072067;28;20968;-53
2023/05/06 00:10:43;;;;;;;1.50;1.00;;;13.90;99.90;;;;;;5072133;28;20487;-54
2023/05/06 00:13:11;;;;;;;1.40;0.70;;;13.60;99.90;;;;;;5072126;28;20476;-53
2023/05/06 00:15:39;;;;;;;1.40;0.90;;;13.30;99.90;;;;;;5071808;28;20437;-54
2023/05/06 00:18:06;;;;;;;2.50;0.93;;;13.20;99.90;;;;;;5071771;28;20465;-52
2023/05/06 00:20:33;;;;;;;2.90;1.10;;;13.50;99.90;;;;;;5071430;28;20476;-53
2023/05/06 00:23:00;;;;;;;2.30;1.23;;;13.70;99.90;;;;;;5072081;28;20579;-52
2023/05/06 00:25:27;;;;;;;1.70;1.00;;;13.90;99.90;;;;;;5071728;28;20537;-54
2023/05/06 00:27:54;;;;;;;1.30;0.87;;;14.00;99.90;;;;;;5070592;28;20535;-52
2023/05/06 00:30:22;;;;;;;2.23;1.20;;;14.00;99.90;;;;;;5070150;28;21185;-53
2023/05/06 00:32:49;;;;;;;1.40;0.90;;;14.00;99.90;;;;;;5068325;28;20777;-54
2023/05/06 00:35:16;;;;;;;1.80;0.80;;;14.00;99.90;;;;;;5071330;28;20527;-54
2023/05/06 00:37:46;;;;;;;1.20;0.80;;;14.00;99.90;;;;;;5070646;28;21142;-52
2023/05/06 00:40:13;;;;;;;1.30;0.70;;;14.00;99.90;;;;;;5071239;28;20448;-52
2023/05/06 00:42:40;;;;;;;1.47;0.97;;;14.00;99.90;;;;;;5071481;28;20488;-54
2023/05/06 00:45:08;;;;;;;3.00;0.90;;;13.90;99.90;;;;;;5071455;28;20472;-52
2023/05/06 00:47:37;;;;;;;1.30;0.70;;;14.00;99.90;;;;;;5090954;22;20563;-85
2023/05/06 00:50:04;;;;;;;1.27;0.80;;;14.00;99.90;;;;;;5058093;28;20869;-85
2023/05/06 00:52:31;;;;;;;2.70;0.70;;;14.00;99.90;;;;;;5053796;28;20525;-85
2023/05/06 00:54:58;;;;;;;1.73;1.13;;;14.00;99.90;;;;;;5053060;28;20531;-85
2023/05/06 00:57:25;;;;;;;1.50;1.03;;;14.00;99.90;;;;;;5052426;28;20540;-85
2023/05/06 00:59:52;;;;;;;1.67;0.60;;;13.90;99.90;;;;;;5052531;28;20953;-85
2023/05/06 01:02:19;;;;;;;3.20;0.90;;;13.90;99.90;;;;;;5052702;28;20565;-86
2023/05/06 01:04:47;;;;;;;1.80;1.10;;;13.90;99.90;;;;;;5049743;28;20449;-85
2023/05/06 01:07:25;;;;;;;1.30;1.03;;;13.30;99.90;;;;;;5053662;28;20500;-85
2023/05/06 01:09:57;;;;;;;1.40;0.90;;;13.00;99.90;;;;;;5053255;28;20904;-85
2023/05/06 01:12:30;;;;;;;3.00;0.90;;;12.90;99.90;;;;;;5053213;28;20434;-85
2023/05/06 01:15:05;;;;;;;1.77;0.80;;;13.30;99.90;;;;;;5052884;28;20528;-85
2023/05/06 01:17:36;;;;;;;1.30;0.77;;;13.50;99.90;;;;;;5053188;28;20445;-86
2023/05/06 01:20:09;;;;;;;1.40;0.80;;;13.60;99.90;;;;;;5053804;28;20572;-85
2023/05/06 01:22:37;;;;;;;1.70;0.80;;;13.50;99.90;;;;;;5054067;28;20478;-85
2023/05/06 01:25:06;;;;;;;4.03;1.03;;;13.30;99.90;;;;;;5053150;28;20903;-85
2023/05/06 01:27:33;;;;;;;2.23;0.70;;;13.20;99.90;;;;;;5052664;28;20719;-85
2023/05/06 01:30:00;;;;;;;2.10;1.00;;;13.00;99.90;;;;;;5053717;28;20488;-85
2023/05/06 01:32:41;;;;;;;1.33;0.83;;;12.60;99.90;;;;;;5053318;28;20473;-85
2023/05/06 01:35:20;;;;;;;2.60;1.20;;;12.80;99.90;;;;;;5054260;28;20476;-85
2023/05/06 01:37:56;;;;;;;1.60;1.07;;;12.70;99.90;;;;;;5054246;28;20489;-85
2023/05/06 01:40:27;;;;;;;1.50;1.10;;;12.80;99.90;;;;;;5054392;28;20488;-85
2023/05/06 01:42:55;;;;;;;1.43;0.73;;;12.80;99.90;;;;;;5053608;28;20477;-85
2023/05/06 01:45:25;;;;;;;1.73;1.07;;;12.50;99.90;;;;;;5054254;28;20496;-85
2023/05/06 01:47:52;;;;;;;1.90;1.10;;;12.40;99.90;;;;;;5052759;28;20535;-88
2023/05/06 01:50:20;;;;;;;1.73;1.17;;;12.50;99.90;;;;;;5051916;28;20876;-88
2023/05/06 01:52:57;;;;;;;1.50;1.20;;;12.70;99.90;;;;;;5051675;28;20433;-88
2023/05/06 01:55:26;;;;;;;1.23;0.70;;;13.00;99.90;;;;;;5051308;28;20469;-88
2023/05/06 01:57:53;;;;;;;2.07;1.30;;;13.10;99.90;;;;;;5051476;28;20453;-88
2023/05/06 02:00:19;;;;;;;1.80;0.90;;;13.10;99.90;;;;;;5051278;28;20537;-88
2023/05/06 02:02:47;;;;;;;1.57;1.20;;;13.10;99.90;;;;;;5051488;28;20564;-88
2023/05/06 02:05:14;;;;;;;2.53;0.97;;;13.10;99.90;;;;;;5051087;28;20469;-88
2023/05/06 02:07:40;;;;;;;1.10;0.67;;;13.10;99.90;;;;;;5050799;28;20454;-87
2023/05/06 02:10:08;;;;;;;1.17;0.70;;;13.00;99.90;;;;;;5053174;28;20445;-88
2023/05/06 02:12:36;;;;;;;1.87;0.80;;;13.10;99.90;;;;;;5055044;28;20714;-87
2023/05/06 02:15:04;;;;;;;1.30;1.10;;;13.10;99.90;;;;;;5054664;28;20450;-88
2023/05/06 02:17:31;;;;;;;1.33;1.00;;;13.10;99.90;;;;;;5057703;28;20473;-85
2023/05/06 02:19:57;;;;;;;1.77;0.80;;;13.00;99.90;;;;;;5058208;28;20478;-85
2023/05/06 02:22:24;;;;;;;1.80;1.00;;;13.00;99.90;;;;;;5058031;28;21098;-85
2023/05/06 02:24:51;;;;;;;1.60;1.17;;;13.00;99.90;;;;;;5058034;28;20473;-85
2023/05/06 02:27:18;;;;;;;2.43;0.80;;;13.00;99.90;;;;;;5057027;28;20465;-85
2023/05/06 02:29:47;;;;;;;2.17;1.30;;;13.00;99.90;;;;;;5058451;28;20449;-85
2023/05/06 02:32:14;;;;;;;1.30;0.90;;;13.00;99.90;;;;;;5040711;28;20812;-85
2023/05/06 02:34:41;;;;;;;1.40;0.90;;;12.90;99.90;;;;;;5037866;28;20503;-85
2023/05/06 02:37:07;;;;;;;1.20;0.77;;;12.90;99.90;;;;;;5055822;28;20449;-85
2023/05/06 02:39:34;;;;;;;3.23;1.10;;;12.60;99.90;;;;;;5057443;28;20492;-85
2023/05/06 02:42:02;;;;;;;1.93;1.13;;;12.00;99.90;;;;;;5058829;28;20519;-85
2023/05/06 02:44:29;;;;;;;1.37;1.00;;;12.00;99.90;;;;;;5058370;28;20464;-85
2023/05/06 02:46:58;;;;;;;1.93;1.43;;;11.90;99.90;;;;;;5058153;28;21005;-86
2023/05/06 02:49:25;;;;;;;2.13;0.93;;;12.20;99.90;;;;;;5058086;28;20818;-85
2023/05/06 02:51:51;;;;;;;1.97;0.90;;;12.60;99.90;;;;;;5058290;28;20473;-86
2023/05/06 02:54:18;;;;;;;1.67;0.90;;;12.60;99.90;;;;;;5057812;28;20629;-86
2023/05/06 02:56:45;;;;;;;4.70;1.50;;;12.40;99.90;;;;;;5057564;28;20507;-86
2023/05/06 02:59:12;;;;;;;1.60;1.17;;;12.30;99.90;;;;;;5057079;28;20530;-85
2023/05/06 03:01:39;;;;;;;1.90;1.60;;;12.40;99.90;;;;;;5057379;28;20479;-85
2023/05/06 03:04:07;;;;;;;1.93;1.23;;;12.50;99.90;;;;;;5057755;28;20446;-85
2023/05/06 03:06:34;;;;;;;1.60;1.23;;;12.40;99.90;;;;;;5057271;28;20461;-85
2023/05/06 03:09:01;;;;;;;1.77;1.00;;;12.60;99.90;;;;;;5056220;28;20441;-85
2023/05/06 03:11:30;;;;;;;1.30;1.10;;;12.40;99.90;;;;;;5056273;28;20470;-85
2023/05/06 03:13:57;;;;;;;2.27;1.10;;;12.40;99.90;;;;;;5056443;28;20476;-86
2023/05/06 03:16:24;;;;;;;2.17;1.00;;;12.50;99.90;;;;;;5056046;28;20569;-85
2023/05/06 03:18:51;;;;;;;1.70;1.07;;;12.40;99.90;;;;;;5056590;28;20771;-85
2023/05/06 03:21:19;;;;;;;1.53;1.30;;;12.20;99.90;;;;;;5055486;28;20480;-84
2023/05/06 03:23:46;;;;;;;2.70;1.83;;;12.00;99.90;;;;;;5056718;28;20470;-85
2023/05/06 03:26:13;;;;;;;2.50;1.40;;;11.90;99.90;;;;;;5056380;28;20504;-85
2023/05/06 03:28:43;;;;;;;2.13;1.40;;;12.00;99.90;;;;;;5057026;28;20818;-85
2023/05/06 03:31:10;;;;;;;2.10;1.30;;;12.40;99.90;;;;;;5057219;28;20456;-85
2023/05/06 03:33:36;;;;;;;1.70;1.30;;;12.50;99.90;;;;;;5056703;28;20442;-85
2023/05/06 03:36:04;;;;;;;1.90;1.50;;;12.60;99.90;;;;;;5057046;28;20867;-86
2023/05/06 03:38:32;;;;;;;2.10;1.33;;;12.70;99.90;;;;;;5057079;28;20450;-85
2023/05/06 03:40:59;;;;;;;3.23;1.37;;;12.80;99.90;;;;;;5057346;28;20805;-85
2023/05/06 03:43:26;;;;;;;1.70;1.10;;;12.80;99.90;;;;;;5056492;28;20531;-85
2023/05/06 03:45:53;;;;;;;1.43;1.33;;;12.90;99.90;;;;;;5057346;28;20527;-85
2023/05/06 03:48:20;;;;;;;2.27;1.43;;;13.00;99.90;;;;;;5055004;28;20542;-85
2023/05/06 03:50:47;;;;;;;1.63;1.13;;;13.00;99.90;;;;;;5055629;28;20703;-85
2023/05/06 03:53:14;;;;;;;2.40;1.50;;;12.90;99.90;;;;;;5056018;28;20434;-86
2023/05/06 03:55:42;;;;;;;1.93;1.10;;;12.90;99.90;;;;;;5054836;28;20527;-86
2023/05/06 03:58:09;;;;;;;1.77;1.23;;;13.00;99.90;;;;;;5055932;28;20453;-85
2023/05/06 04:00:37;;;;;;;2.37;1.43;;;13.00;99.90;;;;;;5055442;28;20520;-85
2023/05/06 04:03:04;;;;;;;1.40;1.30;;;12.90;99.90;;;;;;5056458;28;20549;-85
2023/05/06 04:05:31;;;;;;;1.50;1.30;;;13.00;99.90;;;;;;5056463;28;20489;-85
2023/05/06 04:07:57;;;;;;;2.33;1.60;;;13.00;99.90;;;;;;5056635;28;20491;-85
2023/05/06 04:10:24;;;;;;;2.00;1.73;;;13.00;99.90;;;;;;5056662;28;20874;-85
2023/05/06 04:12:53;;;;;;;1.90;1.63;;;13.00;99.90;;;;;;5056923;28;20466;-85
2023/05/06 04:15:20;;;;;;;2.13;1.77;;;13.10;99.90;;;;;;5056264;28;20527;-85
2023/05/06 04:17:47;;;;;;;1.90;1.40;;;13.10;99.90;;;;;;5037106;28;20501;-85
2023/05/06 04:20:14;;;;;;;1.50;1.40;;;13.00;99.90;;;;;;5036553;28;20500;-86
2023/05/06 04:22:41;;;;;;;1.40;1.30;;;12.90;99.90;;;;;;5043564;28;20828;-85
2023/05/06 04:25:09;;;;;;;1.73;1.33;;;12.80;99.90;;;;;;5056572;28;20470;-85
2023/05/06 04:27:36;;;;;;;1.30;1.10;;;12.70;99.90;;;;;;5055797;28;20867;-86
2023/05/06 04:30:05;;;;;;;3.73;1.37;;;12.70;99.90;;;;;;5063377;28;20458;-86
2023/05/06 04:32:32;;;;;;;2.70;1.90;;;12.80;99.90;;;;;;5052199;28;20533;-86
2023/05/06 04:34:59;;;;;;;2.20;1.70;;;13.00;99.90;;;;;;5052066;28;20477;-85
2023/05/06 04:37:27;;;;;;;1.73;1.33;;;13.10;99.90;;;;;;5052277;28;20500;-85
2023/05/06 04:39:54;;;;;;;2.43;1.90;;;13.00;99.90;;;;;;5052994;28;20474;-85
2023/05/06 04:42:21;;;;;;;2.50;1.83;;;12.60;99.90;;;;;;5053194;28;20445;-85
2023/05/06 04:44:48;;;;;;;2.53;1.53;;;12.70;99.90;;;;;;5052611;28;20489;-85
2023/05/06 04:47:17;;;;;;;1.60;1.50;;;12.40;99.90;;;;;;5052872;28;20444;-85
2023/05/06 04:49:43;;;;;;;1.90;1.53;;;12.40;99.90;;;;;;5056083;28;20457;-85
2023/05/06 04:52:10;;;;;;;3.30;1.97;;;12.50;99.90;;;;;;5054672;28;20993;-85
2023/05/06 04:54:37;;;;;;;1.80;1.50;;;12.80;99.90;;;;;;5053558;28;20469;-85
2023/05/06 04:57:04;;;;;;;3.03;2.00;;;12.90;99.90;;;;;;5053109;28;20783;-85
2023/05/06 04:59:31;;;;;;;1.77;1.63;;;12.90;99.90;;;;;;5053782;28;20476;-85
2023/05/06 05:01:58;;;;;;;3.00;2.20;;;13.00;99.90;;;;;;5054006;28;20476;-86
2023/05/06 05:04:26;;;;;;;2.70;1.67;;;13.10;99.90;;;;;;5053587;28;20513;-85
2023/05/06 05:06:53;;;;;;;4.67;2.00;;;13.10;99.90;;;;;;5053228;28;20526;-85
2023/05/06 05:09:20;;;;;;;1.80;1.40;;;13.10;99.90;;;;;;5054404;28;20818;-85
2023/05/06 05:11:47;;;;;;;2.90;1.70;;;13.10;99.90;;;;;;5054412;28;20481;-85
2023/05/06 05:14:14;;;;;;;2.77;1.57;;;13.20;99.90;;;;;;5053763;28;20923;-85
2023/05/06 05:16:41;;;;;;;3.33;1.30;;;13.20;99.90;;;;;;5053259;28;20544;-85
2023/05/06 05:19:08;;;;;;;2.30;1.30;;;13.30;99.90;;;;;;5054107;28;20524;-85
2023/05/06 05:21:36;;;;;;;1.87;1.40;;;13.40;99.90;;;;;;5054763;28;20434;-85
2023/05/06 05:24:03;;;;;;;2.70;2.00;;;13.40;99.90;;;;;;5053922;28;20473;-85
2023/05/06 05:26:30;;;;;;;2.97;2.13;;;13.30;99.90;;;;;;5053459;28;21044;-85
2023/05/06 05:28:57;;;;;;;2.03;1.70;;;12.80;99.90;;;;;;5052674;28;20919;-85
2023/05/06 05:31:24;;;;;;;1.60;1.50;;;12.90;99.90;;;;;;5053153;28;20450;-85
2023/05/06 05:33:51;;;;;;;2.90;1.57;;;13.10;99.90;;;;;;5052991;28;20473;-85
2023/05/06 05:36:18;;;;;;;2.20;1.37;;;13.20;99.90;;;;;;5052429;28;20593;-85
2023/05/06 05:38:46;;;;;;;2.90;2.07;;;13.20;99.90;;;;;;5052209;28;20532;-84
2023/05/06 05:41:13;;;;;;;6.43;2.60;;;13.30;99.90;;;;;;5052716;28;20441;-85
2023/05/06 05:43:40;;;;;;;2.70;2.50;;;13.20;99.90;;;;;;5053320;28;20520;-85
2023/05/06 05:46:07;;;;;;;9.43;2.93;;;12.70;99.90;;;;;;5057944;28;20501;-85
2023/05/06 05:48:34;;;;;;;3.13;2.83;;;12.50;99.90;;;;;;5058993;28;21011;-85
2023/05/06 05:51:02;;;;;;;2.63;2.27;;;12.50;99.90;;;;;;5058734;28;20449;-85
2023/05/06 05:53:29;;;;;;;3.03;2.23;;;12.30;99.90;;;;;;5057848;28;20499;-85
2023/05/06 05:55:57;;;;;;;2.50;2.30;;;12.40;99.90;;;;;;5058588;28;20445;-85
2023/05/06 05:58:24;;;;;;;2.90;2.17;;;12.70;99.90;;;;;;5059487;28;20456;-85
2023/05/06 06:00:51;;;;;;;2.83;2.60;;;12.90;99.90;;;;;;5057698;28;20466;-85
2023/05/06 06:03:18;;;;;;;3.17;2.17;;;13.10;99.90;;;;;;5055000;28;20907;-85
2023/05/06 06:05:45;;;;;;;3.33;2.13;;;13.10;99.90;;;;;;5049243;28;20974;-86
2023/05/06 06:08:12;;;;;;;2.73;2.03;;;13.10;99.90;;;;;;5059187;28;20532;-85
2023/05/06 06:10:40;;;;;;;2.67;2.43;;;12.90;99.90;;;;;;5058355;28;20484;-83
2023/05/06 06:13:09;;;;;;;3.00;2.33;;;12.90;99.90;;;;;;5057175;28;20449;-84
2023/05/06 06:15:36;;;;;;;3.60;2.90;;;13.00;99.90;;;;;;5058404;28;20477;-83
2023/05/06 06:18:03;;;;;;;3.20;2.90;;;13.20;99.90;;;;;;5060762;28;20446;-84
2023/05/06 06:20:30;;;;;;;2.17;1.97;;;13.30;99.90;;;;;;5061072;28;20453;-84
2023/05/06 06:22:57;;;;;;;5.63;2.53;;;13.30;99.90;;;;;;5060461;28;20450;-85
2023/05/06 06:25:24;;;;;;;3.63;3.33;;;13.40;99.90;;;;;;5060409;28;20470;-84
2023/05/06 06:27:51;;;;;;;3.63;3.33;;;13.40;99.90;;;;;;5056319;28;20444;-85
2023/05/06 06:30:19;;;;;;;4.17;3.77;;;13.40;99.90;;;;;;5050952;28;20442;-84
2023/05/06 06:32:51;;;;;;;5.30;3.70;;;13.30;99.90;;;;;;5053033;28;20611;-85
2023/05/06 06:35:19;;;;;;;6.43;4.27;;;12.90;99.90;;;;;;5049642;28;21029;-83
2023/05/06 06:37:46;;;;;;;4.63;3.20;;;13.10;99.90;;;;;;5051705;28;20438;-85
2023/05/06 06:40:13;;;;;;;6.13;3.50;;;13.20;99.90;;;;;;5050454;28;20954;-84
2023/05/06 06:42:40;;;;;;;4.00;3.17;;;13.30;99.90;;;;;;5048834;28;20446;-85
2023/05/06 06:45:08;;;;;;;4.03;3.13;;;13.40;99.90;;;;;;5053062;28;20480;-85
2023/05/06 06:47:37;;;;;;;3.63;3.10;;;13.50;99.90;;;;;;5050088;28;20572;-85
2023/05/06 06:50:04;;;;;;;4.83;3.87;;;13.50;99.90;;;;;;5053353;28;20434;-83
2023/05/06 06:52:31;;;;;;;4.30;3.63;;;13.40;99.90;;;;;;5058714;28;20499;-84
2023/05/06 06:54:58;;;;;;;5.30;3.77;;;13.50;99.90;;;;;;5055949;28;20506;-85
2023/05/06 06:57:25;;;;;;;3.83;3.23;;;13.50;99.90;;;;;;5051933;28;20441;-85
2023/05/06 06:59:52;;;;;;;4.23;3.10;;;13.60;99.90;;;;;;5054866;28;20849;-84
2023/05/06 07:02:19;;;;;;;3.40;3.10;;;13.30;99.90;;;;;;5055093;28;21018;-85
2023/05/06 07:04:47;;;;;;;3.97;3.40;;;13.20;99.90;;;;;;5086815;22;20931;-56
2023/05/06 07:07:14;;;;;;;4.83;3.70;;;13.30;99.90;;;;;;5071086;28;20523;-56
2023/05/06 07:09:43;;;;;;;3.60;3.30;;;13.40;99.90;;;;;;5067766;28;20464;-56
2023/05/06 07:12:10;;;;;;;3.97;3.63;;;13.50;99.90;;;;;;5065676;28;20472;-56
2023/05/06 07:14:37;;;;;;;4.20;3.30;;;13.60;99.90;;;;;;5062862;28;20468;-56
2023/05/06 07:17:05;;;;;;;2.80;2.60;;;13.60;99.90;;;;;;5062087;28;20445;-56
2023/05/06 07:19:31;;;;;;;4.87;3.77;;;13.60;99.90;;;;;;5061928;28;20499;-56
2023/05/06 07:22:01;;;;;;;3.53;3.23;;;13.60;99.90;;;;;;5060692;28;20477;-58
2023/05/06 07:24:28;;;;;;;3.00;2.70;;;13.60;99.90;;;;;;5066367;28;20583;-56
2023/05/06 07:26:56;;;;;;;2.63;2.43;;;13.70;99.90;;;;;;5068953;28;20481;-57
2023/05/06 07:29:23;;;;;;;2.67;2.47;;;13.70;99.90;;;;;;5068854;28;20464;-56
2023/05/06 07:31:50;;;;;;;3.83;2.77;;;13.70;99.90;;;;;;5068600;28;20456;-56
2023/05/06 07:34:17;;;;;;;3.30;2.60;;;13.70;99.90;;;;;;5055951;28;20453;-56
2023/05/06 07:36:44;;;;;;;3.00;2.57;;;13.80;99.90;;;;;;5054916;28;20462;-56
2023/05/06 07:39:15;;;;;;;3.00;2.70;;;13.80;99.90;;;;;;5056988;28;20468;-58
2023/05/06 07:41:42;;;;;;;4.93;2.60;;;13.90;99.90;;;;;;5049006;28;20453;-57
2023/05/06 07:44:09;;;;;;;4.30;2.17;;;13.80;99.90;;;;;;5050928;28;20481;-57
2023/05/06 07:46:37;;;;;;;3.40;2.67;;;13.80;99.90;;;;;;5049383;28;20455;-58
2023/05/06 07:49:04;;;;;;;3.63;3.33;;;13.80;99.90;;;;;;5048993;28;20469;-58
2023/05/06 07:51:31;;;;;;;3.47;2.90;;;13.90;99.90;;;;;;5058265;28;20567;-58
2023/05/06 07:53:58;;;;;;;3.63;2.67;;;14.00;99.90;;;;;;5062949;28;20468;-58
2023/05/06 07:56:26;;;;;;;4.57;3.00;;;14.00;99.90;;;;;;5057408;28;20540;-58
2023/05/06 07:58:54;;;;;;;4.40;2.77;;;14.00;99.90;;;;;;5065178;28;20505;-57
2023/05/06 08:01:21;;;;;;;2.90;2.60;;;14.00;99.90;;;;;;5066418;28;20446;-58
2023/05/06 08:03:48;;;;;;;3.20;2.70;;;14.00;99.90;;;;;;5061020;28;20974;-57
2023/05/06 08:06:15;;;;;;;3.23;2.50;;;14.00;99.90;;;;;;5060666;28;20496;-57
2023/05/06 08:08:41;;;;;;;3.07;2.50;;;14.00;99.90;;;;;;5061893;28;20720;-57
2023/05/06 08:11:08;;;;;;;3.50;3.20;;;13.90;99.90;;;;;;5059340;28;20987;-57
2023/05/06 08:13:37;;;;;;;4.10;3.03;;;13.80;99.90;;;;;;5060672;28;20444;-57
2023/05/06 08:16:06;;;;;;;2.73;2.53;;;14.00;99.90;;;;;;5067699;28;20450;-57
2023/05/06 08:18:33;;;;;;;3.37;3.07;;;13.90;99.90;;;;;;5062400;28;20452;-57
2023/05/06 08:21:00;;;;;;;3.63;3.30;;;13.60;99.90;;;;;;5057190;28;20451;-57
2023/05/06 08:23:27;;;;;;;3.53;3.10;;;13.90;99.90;;;;;;5061676;28;20440;-57
2023/05/06 08:25:54;;;;;;;2.50;1.97;;;13.70;99.90;;;;;;5064680;28;21061;-57
2023/05/06 08:28:23;;;;;;;2.57;1.80;;;13.70;99.90;;;;;;5066687;28;21060;-57
2023/05/06 08:30:53;;;;;;;3.00;2.37;;;13.90;99.90;;;;;;5066621;28;20433;-57
2023/05/06 08:33:20;;;;;;;2.33;2.13;;;14.10;99.90;;;;;;5066238;28;20445;-57
2023/05/06 08:35:48;;;;;;;4.00;2.33;;;14.10;99.90;;;;;;5064980;28;20544;-57
2023/05/06 08:38:17;;;;;;;2.63;2.40;;;14.00;99.90;;;;;;5060944;28;20847;-57
2023/05/06 08:40:44;;;;;;;3.70;2.53;;;14.30;99.90;;;;;;5059133;28;20556;-58
2023/05/06 08:43:15;;;;;;;2.93;2.63;;;14.60;99.90;;;;;;5058862;28;20520;-57
2023/05/06 08:45:42;;;;;;;3.50;2.43;;;14.50;99.90;;;;;;5055521;28;20488;-57
2023/05/06 08:48:11;;;;;;;3.10;2.80;;;14.50;99.90;;;;;;5053318;28;21193;-57
2023/05/06 08:50:42;;;;;;;2.97;2.63;;;14.40;99.90;;;;;;5066646;28;21014;-57
2023/05/06 08:53:11;;;;;;;3.93;3.53;;;14.40;99.90;;;;;;5054061;28;21054;-57
2023/05/06 08:55:41;;;;;;;5.53;2.90;;;14.40;99.90;;;;;;5054348;28;20445;-59
2023/05/06 08:58:10;;;;;;;4.10;3.70;;;14.60;99.90;;;;;;5047213;28;20920;-57
2023/05/06 09:00:38;;;;;;;3.43;2.67;;;14.60;99.90;;;;;;5056080;28;20452;-57
2023/05/06 09:03:06;;;;;;;2.20;1.80;;;14.90;99.90;;;;;;5063279;28;20477;-58
2023/05/06 09:05:34;;;;;;;2.13;1.83;;;14.90;99.90;;;;;;5056579;28;21209;-56
2023/05/06 09:08:01;;;;;;;2.80;1.67;;;14.90;99.90;;;;;;5054731;28;20470;-57
2023/05/06 09:10:32;;;;;;;2.33;1.67;;;15.10;99.90;;;;;;5061628;28;20528;-56
2023/05/06 09:12:59;;;;;;;2.00;1.60;;;15.20;99.90;;;;;;5064007;28;20447;-57
2023/05/06 09:15:26;;;;;;;4.47;2.67;;;15.00;99.90;;;;;;5065908;28;20436;-56
2023/05/06 09:17:55;;;;;;;2.33;1.60;;;15.00;99.90;;;;;;5063486;28;20473;-56
2023/05/06 09:20:22;;;;;;;2.20;1.53;;;15.30;99.90;;;;;;5065874;28;20495;-56
2023/05/06 09:22:50;;;;;;;2.20;1.40;;;15.60;99.90;;;;;;5064109;28;20488;-57
2023/05/06 09:25:17;;;;;;;2.03;1.47;;;15.70;99.90;;;;;;5058149;28;20476;-56
2023/05/06 09:27:44;;;;;;;3.03;2.60;;;15.80;99.90;;;;;;5062867;28;20551;-57
2023/05/06 09:30:12;;;;;;;2.50;1.80;;;15.90;99.90;;;;;;5063440;28;20528;-57
2023/05/06 09:32:40;;;;;;;1.90;1.80;;;16.00;99.90;;;;;;5060026;28;20441;-57
2023/05/06 09:35:08;;;;;;;1.90;1.40;;;16.00;99.90;;;;;;5062267;28;20826;-56
2023/05/06 09:37:35;;;;;;;1.63;1.37;;;16.00;99.90;;;;;;5056015;28;20535;-57
2023/05/06 09:40:04;;;;;;;2.10;1.30;;;15.90;99.90;;;;;;5062098;28;20471;-56
2023/05/06 09:42:31;;;;;;;2.20;1.40;;;15.90;99.90;;;;;;5056407;28;20445;-56
2023/05/06 09:45:01;;;;;;;2.43;1.90;;;16.00;99.90;;;;;;5054337;28;20562;-57
2023/05/06 09:47:33;;;;;;;1.93;1.70;;;16.00;99.90;;;;;;5047940;28;20478;-56
2023/05/06 09:50:01;;;;;;;2.23;1.47;;;16.10;99.90;;;;;;5061895;28;20641;-56
2023/05/06 09:52:29;;;;;;;2.23;1.50;;;16.10;99.90;;;;;;5046423;28;21023;-56
2023/05/06 09:54:57;;;;;;;2.23;1.93;;;16.10;99.90;;;;;;5059568;28;20489;-56
2023/05/06 09:57:26;;;;;;;1.90;1.60;;;16.00;99.90;;;;;;5066292;28;20432;-56
2023/05/06 09:59:54;;;;;;;2.13;1.17;;;16.10;99.90;;;;;;5065850;28;20548;-56
2023/05/06 10:02:23;;;;;;;1.97;1.20;;;16.10;99.90;;;;;;5054935;28;20448;-56
2023/05/06 10:04:50;;;;;;;2.10;1.57;;;16.20;99.90;;;;;;5056542;28;20507;-56
2023/05/06 10:07:21;;;;;;;3.23;1.30;;;16.20;99.90;;;;;;5057121;28;20480;-56
2023/05/06 10:09:50;;;;;;;2.23;1.90;;;16.10;99.90;;;;;;5063370;28;20454;-56
2023/05/06 10:12:17;;;;;;;1.70;1.30;;;16.00;99.90;;;;;;5066384;28;20978;-56
2023/05/06 10:14:46;;;;;;;4.13;1.30;;;15.90;99.90;;;;;;5067198;28;20438;-57
2023/05/06 10:17:13;;;;;;;3.93;2.70;;;16.00;99.90;;;;;;5065142;28;20471;-58
2023/05/06 10:19:43;;;;;;;2.23;1.53;;;16.00;99.90;;;;;;5065716;28;20466;-56
2023/05/06 10:22:19;;;;;;;3.80;1.90;;;15.90;99.90;;;;;;5066789;28;20490;-56
2023/05/06 10:24:52;;;;;;;2.40;1.80;;;15.80;99.90;;;;;;5056171;28;21015;-56
2023/05/06 10:27:23;;;;;;;1.97;1.73;;;15.80;99.90;;;;;;5056190;28;20457;-57
2023/05/06 10:29:53;;;;;;;1.63;1.53;;;15.90;99.90;;;;;;5062784;28;20447;-56
2023/05/06 10:32:20;;;;;;;4.37;2.10;;;15.90;99.90;;;;;;5060776;28;20471;-56
2023/05/06 10:34:54;;;;;;;1.83;1.53;;;15.90;99.90;;;;;;5060276;28;20788;-57
2023/05/06 10:37:24;;;;;;;3.43;2.00;;;15.80;99.90;;;;;;5062067;28;20529;-56
2023/05/06 10:39:52;;;;;;;2.30;2.00;;;15.80;99.90;;;;;;5067152;28;20498;-58
2023/05/06 10:42:19;;;;;;;2.30;2.00;;;15.50;99.90;;;;;;5062521;28;20488;-57
2023/05/06 10:45:02;;;;;;;2.80;2.60;;;15.40;99.90;;;;;;5059625;28;20600;-57
2023/05/06 10:48:11;;;;;;;2.63;2.43;;;15.20;99.90;;;;;;5058649;28;20433;-56
2023/05/06 10:50:38;;;;;;;3.17;2.00;;;15.10;99.90;;;;;;5068114;28;20437;-57
2023/05/06 10:53:05;;;;;;;2.83;2.50;;;15.20;99.90;;;;;;5067216;28;20444;-56
2023/05/06 10:55:34;;;;;;;3.57;3.00;;;15.40;99.90;;;;;;5059574;28;20446;-56
2023/05/06 10:58:03;;;;;;;3.10;2.80;;;15.60;99.90;;;;;;5059521;28;20569;-55
2023/05/06 11:00:35;;;;;;;4.80;3.27;;;15.70;99.90;;;;;;5060187;28;20437;-55
2023/05/06 11:03:03;;;;;;;3.33;3.00;;;15.70;99.90;;;;;;5060366;28;20524;-55
2023/05/06 11:05:30;;;;;;;5.47;3.20;;;15.80;99.90;;;;;;5065344;28;20473;-55
2023/05/06 11:08:15;;;;;;;3.77;3.47;;;15.80;99.90;;;;;;5058712;28;20473;-57
2023/05/06 11:10:42;;;;;;;3.93;3.23;;;16.00;99.90;;;;;;5068151;28;20462;-55
2023/05/06 11:13:21;;;;;;;5.90;3.73;;;16.10;99.90;;;;;;5065982;28;20516;-57
2023/05/06 11:15:50;;;;;;;3.00;2.70;;;16.30;99.90;;;;;;5068361;28;20463;-56
2023/05/06 11:18:43;;;;;;;2.23;2.03;;;16.40;99.90;;;;;;5068563;28;21015;-56
2023/05/06 11:21:38;;;;;;;3.13;2.83;;;16.40;99.90;;;;;;5068841;28;20527;-56
2023/05/06 11:24:10;;;;;;;3.40;2.63;;;16.40;99.90;;;;;;5059458;28;21069;-56
2023/05/06 11:26:39;;;;;;;3.07;2.80;;;16.40;99.90;;;;;;5056062;28;20887;-56
2023/05/06 11:29:08;;;;;;;3.00;2.67;;;16.50;99.90;;;;;;5061610;28;20471;-56
2023/05/06 11:31:41;;;;;;;3.70;2.60;;;16.60;99.90;;;;;;5062130;28;20544;-57
2023/05/06 11:34:09;;;;;;;3.50;2.53;;;16.60;99.90;;;;;;5068005;28;20470;-56
2023/05/06 11:36:37;;;;;;;3.57;3.27;;;16.60;99.90;;;;;;5060501;28;20448;-57
2023/05/06 11:39:08;;;;;;;3.13;2.57;;;16.50;99.90;;;;;;5059821;28;20977;-55
2023/05/06 11:41:39;;;;;;;3.30;2.77;;;16.60;99.90;;;;;;5065766;28;20523;-56
2023/05/06 11:44:05;;;;;;;3.00;2.50;;;16.50;99.90;;;;;;5061875;28;20474;-55
2023/05/06 11:46:34;;;;;;;4.60;2.60;;;16.40;99.90;;;;;;5068708;28;20556;-55
2023/05/06 11:49:02;;;;;;;3.90;2.97;;;16.50;99.90;;;;;;5068505;28;20468;-55
2023/05/06 11:51:29;;;;;;;3.37;3.07;;;16.50;99.90;;;;;;5068505;28;20780;-55
2023/05/06 11:54:05;;;;;;;3.70;3.00;;;16.30;99.90;;;;;;5060070;28;20456;-55
2023/05/06 11:56:43;;;;;;;3.00;2.70;;;16.10;99.90;;;;;;5054106;28;20460;-55
2023/05/06 11:59:10;;;;;;;3.27;2.97;;;16.10;99.90;;;;;;5060610;28;20554;-56
2023/05/06 12:01:38;;;;;;;3.23;2.80;;;16.20;99.90;;;;;;5068169;28;20528;-55
2023/05/06 12:04:06;;;;;;;3.73;3.30;;;16.40;99.90;;;;;;5068439;28;20454;-55
2023/05/06 12:06:35;;;;;;;3.43;3.13;;;16.50;99.90;;;;;;5064844;28;20479;-56
2023/05/06 12:09:02;;;;;;;10.67;6.77;;;16.60;99.90;;;;;;5063941;28;20491;-56
2023/05/06 12:11:30;;;;;;;11.27;6.63;;;16.60;99.90;;;;;;5061261;28;21031;-55
2023/05/06 12:13:57;;;;;;;10.00;7.30;;;16.50;99.90;;;;;;5061856;28;20446;-55
2023/05/06 12:16:24;;;;;;;7.93;6.17;;;16.40;99.90;;;;;;5059060;28;20493;-56
2023/05/06 12:18:53;;;;;;;4.07;2.80;;;16.50;99.90;;;;;;5055608;28;20485;-54
2023/05/06 12:21:23;;;;;;;3.07;2.63;;;16.60;99.90;;;;;;5055599;28;20457;-55
2023/05/06 12:23:54;;;;;;;2.90;2.60;;;16.60;99.90;;;;;;5049131;28;20442;-56
2023/05/06 12:26:22;;;;;;;2.30;2.10;;;16.60;99.90;;;;;;5063458;28;20846;-55
2023/05/06 12:29:05;;;;;;;3.47;2.53;;;16.60;99.90;;;;;;5055790;28;20840;-55
2023/05/06 12:31:32;;;;;;;3.83;2.47;;;16.60;99.90;;;;;;5059683;28;20450;-57
2023/05/06 12:33:59;;;;;;;2.70;2.30;;;16.60;99.90;;;;;;5062907;28;20538;-56
2023/05/06 12:36:28;;;;;;;2.77;2.37;;;16.60;99.90;;;;;;5059941;28;20472;-56
2023/05/06 12:38:56;;;;;;;2.67;2.30;;;16.70;99.90;;;;;;5059700;28;20510;-55
2023/05/06 12:41:25;;;;;;;2.47;2.27;;;16.80;99.90;;;;;;5061171;28;20440;-56
2023/05/06 12:43:52;;;;;;;2.43;2.23;;;17.00;99.90;;;;;;5062139;28;20498;-56
2023/05/06 12:46:19;;;;;;;2.37;1.93;;;17.00;99.90;;;;;;5060350;28;20488;-55
2023/05/06 12:48:59;;;;;;;2.80;2.60;;;17.20;99.90;;;;;;5059223;28;20997;-56
2023/05/06 12:51:29;;;;;;;2.50;2.30;;;17.30;99.90;;;;;;5059606;28;20530;-57